sensor_id;sensor_type;location;lat;lon;timestamp;pressure;altitude;pressure_sealevel;temperature;humidity
42887;BME280;29032;56.028;92.904;2022-09-27T00:02:34;99169.47;;;4.15;59.28
42887;BME280;29032;56.028;92.904;2022-09-27T00:07:36;99170.63;;;3.86;60.96
42887;BME280;29032;56.028;92.904;2022-09-27T00:12:38;99171.84;;;3.79;60.85
42887;BME280;29032;56.028;92.904;2022-09-27T00:17:42;99168.31;;;3.73;60.85
42887;BME280;29032;56.028;92.904;2022-09-27T00:22:45;99156.00;;;3.57;61.46
42887;BME280;29032;56.028;92.904;2022-09-27T00:27:47;99165.03;;;3.64;61.60
42887;BME280;29032;56.028;92.904;2022-09-27T00:32:50;99168.09;;;3.82;61.63
42887;BME280;29032;56.028;92.904;2022-09-27T00:37:52;99151.56;;;3.82;60.59
42887;BME280;29032;56.028;92.904;2022-09-27T00:42:55;99171.75;;;4.28;60.08
42887;BME280;29032;56.028;92.904;2022-09-27T00:48:00;99166.00;;;4.37;59.58
42887;BME280;29032;56.028;92.904;2022-09-27T00:53:10;99160.22;;;4.24;59.45
42887;BME280;29032;56.028;92.904;2022-09-27T00:58:13;99165.25;;;4.31;58.42
42887;BME280;29032;56.028;92.904;2022-09-27T01:03:22;99157.34;;;3.84;60.13
42887;BME280;29032;56.028;92.904;2022-09-27T01:08:26;99165.31;;;3.71;60.54
42887;BME280;29032;56.028;92.904;2022-09-27T01:13:34;99165.25;;;3.60;60.37
42887;BME280;29032;56.028;92.904;2022-09-27T01:18:51;99144.16;;;3.46;60.81
42887;BME280;29032;56.028;92.904;2022-09-27T01:24:18;99150.13;;;3.39;60.64
42887;BME280;29032;56.028;92.904;2022-09-27T01:29:26;99143.66;;;3.42;59.30
42887;BME280;29032;56.028;92.904;2022-09-27T01:34:42;99143.13;;;3.38;61.54
42887;BME280;29032;56.028;92.904;2022-09-27T01:39:49;99135.22;;;3.62;61.39
42887;BME280;29032;56.028;92.904;2022-09-27T01:45:09;99142.84;;;3.84;61.24
42887;BME280;29032;56.028;92.904;2022-09-27T01:50:30;99136.66;;;4.06;60.01
42887;BME280;29032;56.028;92.904;2022-09-27T01:55:37;99139.63;;;4.02;60.29
42887;BME280;29032;56.028;92.904;2022-09-27T02:01:03;99125.84;;;4.02;60.90
42887;BME280;29032;56.028;92.904;2022-09-27T02:06:12;99127.84;;;4.02;59.69
42887;BME280;29032;56.028;92.904;2022-09-27T02:11:35;99124.34;;;3.96;60.42
42887;BME280;29032;56.028;92.904;2022-09-27T02:16:49;99125.09;;;4.02;60.30
42887;BME280;29032;56.028;92.904;2022-09-27T02:21:59;99116.34;;;4.09;59.76
42887;BME280;29032;56.028;92.904;2022-09-27T02:27:10;99119.63;;;4.19;59.86
42887;BME280;29032;56.028;92.904;2022-09-27T02:32:15;99114.63;;;4.17;59.48
42887;BME280;29032;56.028;92.904;2022-09-27T02:37:19;99106.59;;;4.13;60.46
42887;BME280;29032;56.028;92.904;2022-09-27T02:42:22;99104.59;;;4.08;59.44
42887;BME280;29032;56.028;92.904;2022-09-27T02:47:36;99104.84;;;4.16;58.96
42887;BME280;29032;56.028;92.904;2022-09-27T02:52:52;99095.31;;;4.11;58.93
42887;BME280;29032;56.028;92.904;2022-09-27T02:58:11;99095.59;;;4.19;59.32
42887;BME280;29032;56.028;92.904;2022-09-27T03:03:43;99088.34;;;4.38;58.00
42887;BME280;29032;56.028;92.904;2022-09-27T03:08:49;99097.63;;;4.35;58.19
42887;BME280;29032;56.028;92.904;2022-09-27T03:13:52;99088.84;;;4.42;57.47
42887;BME280;29032;56.028;92.904;2022-09-27T03:18:55;99087.63;;;4.55;56.96
42887;BME280;29032;56.028;92.904;2022-09-27T03:24:19;99080.34;;;4.57;57.61
42887;BME280;29032;56.028;92.904;2022-09-27T03:29:21;99084.59;;;4.58;56.92
42887;BME280;29032;56.028;92.904;2022-09-27T03:34:30;99073.81;;;4.55;57.38
42887;BME280;29032;56.028;92.904;2022-09-27T03:39:34;99073.81;;;4.66;57.92
42887;BME280;29032;56.028;92.904;2022-09-27T03:44:36;99062.03;;;4.77;56.83
42887;BME280;29032;56.028;92.904;2022-09-27T03:49:38;99062.25;;;4.90;55.99
42887;BME280;29032;56.028;92.904;2022-09-27T03:54:42;99060.25;;;4.90;58.25
42887;BME280;29032;56.028;92.904;2022-09-27T03:59:44;99047.16;;;5.02;56.60
42887;BME280;29032;56.028;92.904;2022-09-27T04:05:18;99046.16;;;5.11;56.46
42887;BME280;29032;56.028;92.904;2022-09-27T04:10:22;99045.66;;;5.12;56.05
42887;BME280;29032;56.028;92.904;2022-09-27T04:15:25;99054.47;;;4.94;57.47
42887;BME280;29032;56.028;92.904;2022-09-27T04:20:27;99040.16;;;4.95;58.37
42887;BME280;29032;56.028;92.904;2022-09-27T04:25:32;99057.16;;;5.22;56.67
42887;BME280;29032;56.028;92.904;2022-09-27T04:30:39;99045.56;;;5.40;55.99
42887;BME280;29032;56.028;92.904;2022-09-27T04:35:47;99044.22;;;5.58;56.94
42887;BME280;29032;56.028;92.904;2022-09-27T04:40:51;99036.09;;;5.77;55.32
42887;BME280;29032;56.028;92.904;2022-09-27T04:45:53;99014.75;;;5.77;55.48
42887;BME280;29032;56.028;92.904;2022-09-27T04:50:56;99017.28;;;6.11;53.54
42887;BME280;29032;56.028;92.904;2022-09-27T04:56:00;98999.59;;;6.25;53.30
42887;BME280;29032;56.028;92.904;2022-09-27T05:01:03;99003.09;;;6.26;52.65
42887;BME280;29032;56.028;92.904;2022-09-27T05:06:23;98996.31;;;6.27;53.44
42887;BME280;29032;56.028;92.904;2022-09-27T05:11:28;98987.59;;;6.47;52.73
42887;BME280;29032;56.028;92.904;2022-09-27T05:16:59;98982.41;;;6.62;52.13
42887;BME280;29032;56.028;92.904;2022-09-27T05:22:16;98967.06;;;6.86;52.31
42887;BME280;29032;56.028;92.904;2022-09-27T05:27:20;98954.53;;;7.04;51.65
42887;BME280;29032;56.028;92.904;2022-09-27T05:32:22;98952.22;;;7.08;50.44
42887;BME280;29032;56.028;92.904;2022-09-27T05:37:32;98932.75;;;6.95;50.39
42887;BME280;29032;56.028;92.904;2022-09-27T05:42:37;98937.47;;;7.00;50.86
42887;BME280;29032;56.028;92.904;2022-09-27T05:47:40;98928.34;;;7.05;51.00
42887;BME280;29032;56.028;92.904;2022-09-27T05:52:42;98938.97;;;7.19;50.27
42887;BME280;29032;56.028;92.904;2022-09-27T05:57:57;98933.63;;;7.27;48.87
42887;BME280;29032;56.028;92.904;2022-09-27T06:03:06;98936.69;;;7.24;50.92
42887;BME280;29032;56.028;92.904;2022-09-27T06:08:26;98918.22;;;7.32;49.87
42887;BME280;29032;56.028;92.904;2022-09-27T06:13:31;98913.09;;;7.36;49.96
42887;BME280;29032;56.028;92.904;2022-09-27T06:18:33;98908.25;;;7.42;48.06
42887;BME280;29032;56.028;92.904;2022-09-27T06:23:35;98896.03;;;7.51;48.92
42887;BME280;29032;56.028;92.904;2022-09-27T06:28:48;98896.00;;;7.69;47.97
42887;BME280;29032;56.028;92.904;2022-09-27T06:33:50;98897.28;;;7.68;47.91
42887;BME280;29032;56.028;92.904;2022-09-27T06:38:53;98873.94;;;7.77;47.59
42887;BME280;29032;56.028;92.904;2022-09-27T06:44:19;98873.88;;;7.83;47.77
42887;BME280;29032;56.028;92.904;2022-09-27T06:49:44;98861.94;;;7.88;47.52
42887;BME280;29032;56.028;92.904;2022-09-27T06:54:46;98856.72;;;7.97;47.78
42887;BME280;29032;56.028;92.904;2022-09-27T06:59:50;98845.56;;;8.03;47.66
42887;BME280;29032;56.028;92.904;2022-09-27T07:05:10;98838.06;;;7.98;48.93
42887;BME280;29032;56.028;92.904;2022-09-27T07:10:21;98811.22;;;8.06;48.84
42887;BME280;29032;56.028;92.904;2022-09-27T07:15:25;98803.66;;;8.20;47.73
42887;BME280;29032;56.028;92.904;2022-09-27T07:20:29;98799.81;;;8.10;47.28
42887;BME280;29032;56.028;92.904;2022-09-27T07:25:33;98778.38;;;8.10;48.55
42887;BME280;29032;56.028;92.904;2022-09-27T07:30:37;98775.81;;;8.25;50.53
42887;BME280;29032;56.028;92.904;2022-09-27T07:35:40;98760.56;;;8.32;47.61
42887;BME280;29032;56.028;92.904;2022-09-27T07:40:43;98750.75;;;8.31;48.89
42887;BME280;29032;56.028;92.904;2022-09-27T07:45:47;98752.56;;;8.42;47.30
42887;BME280;29032;56.028;92.904;2022-09-27T07:51:21;98756.81;;;8.43;47.83
42887;BME280;29032;56.028;92.904;2022-09-27T07:56:27;98766.19;;;8.53;46.65
42887;BME280;29032;56.028;92.904;2022-09-27T08:01:32;98758.28;;;8.57;47.32
42887;BME280;29032;56.028;92.904;2022-09-27T08:06:34;98740.16;;;8.56;46.95
42887;BME280;29032;56.028;92.904;2022-09-27T08:11:36;98737.56;;;8.58;47.93
42887;BME280;29032;56.028;92.904;2022-09-27T08:16:40;98731.75;;;8.69;47.17
42887;BME280;29032;56.028;92.904;2022-09-27T08:22:07;98721.94;;;8.81;45.90
42887;BME280;29032;56.028;92.904;2022-09-27T08:27:28;98706.91;;;8.98;46.80
42887;BME280;29032;56.028;92.904;2022-09-27T08:32:34;98697.09;;;8.97;46.59
42887;BME280;29032;56.028;92.904;2022-09-27T08:37:37;98686.81;;;8.84;46.73
42887;BME280;29032;56.028;92.904;2022-09-27T08:42:45;98697.16;;;8.83;46.52
42887;BME280;29032;56.028;92.904;2022-09-27T08:47:55;98683.91;;;8.76;46.41
42887;BME280;29032;56.028;92.904;2022-09-27T08:53:04;98679.66;;;8.75;47.20
42887;BME280;29032;56.028;92.904;2022-09-27T08:58:12;98683.63;;;9.01;48.21
42887;BME280;29032;56.028;92.904;2022-09-27T09:03:19;98671.97;;;9.80;45.83
42887;BME280;29032;56.028;92.904;2022-09-27T09:08:31;98688.97;;;10.57;44.35
42887;BME280;29032;56.028;92.904;2022-09-27T09:13:50;98676.44;;;11.32;42.82
42887;BME280;29032;56.028;92.904;2022-09-27T09:19:07;98674.59;;;10.96;41.57
42887;BME280;29032;56.028;92.904;2022-09-27T09:24:48;98674.66;;;10.01;44.17
42887;BME280;29032;56.028;92.904;2022-09-27T09:30:10;98672.28;;;9.41;45.60
42887;BME280;29032;56.028;92.904;2022-09-27T09:35:26;98664.19;;;9.01;46.14
42887;BME280;29032;56.028;92.904;2022-09-27T09:40:37;98672.50;;;8.80;47.31
42887;BME280;29032;56.028;92.904;2022-09-27T09:45:44;98671.88;;;8.74;46.57
42887;BME280;29032;56.028;92.904;2022-09-27T09:50:52;98668.66;;;8.83;47.34
42887;BME280;29032;56.028;92.904;2022-09-27T09:55:59;98659.31;;;8.94;47.98
42887;BME280;29032;56.028;92.904;2022-09-27T10:01:12;98645.63;;;8.96;46.47
42887;BME280;29032;56.028;92.904;2022-09-27T10:06:17;98660.66;;;8.79;46.40
42887;BME280;29032;56.028;92.904;2022-09-27T10:11:23;98638.94;;;8.70;47.40
42887;BME280;29032;56.028;92.904;2022-09-27T10:16:43;98640.41;;;8.71;47.99
42887;BME280;29032;56.028;92.904;2022-09-27T10:21:50;98621.13;;;8.66;48.04
42887;BME280;29032;56.028;92.904;2022-09-27T10:26:56;98633.63;;;8.59;47.68
42887;BME280;29032;56.028;92.904;2022-09-27T10:32:01;98633.22;;;8.55;46.39
42887;BME280;29032;56.028;92.904;2022-09-27T10:37:19;98628.09;;;8.59;46.63
42887;BME280;29032;56.028;92.904;2022-09-27T10:42:38;98616.91;;;8.51;46.83
42887;BME280;29032;56.028;92.904;2022-09-27T10:47:43;98611.38;;;8.51;48.04
42887;BME280;29032;56.028;92.904;2022-09-27T10:53:04;98627.34;;;8.59;47.32
42887;BME280;29032;56.028;92.904;2022-09-27T10:58:16;98621.59;;;8.57;47.96
42887;BME280;29032;56.028;92.904;2022-09-27T11:03:19;98620.50;;;8.39;48.21
42887;BME280;29032;56.028;92.904;2022-09-27T11:08:28;98625.97;;;8.52;48.16
42887;BME280;29032;56.028;92.904;2022-09-27T11:14:00;98624.31;;;8.49;48.47
42887;BME280;29032;56.028;92.904;2022-09-27T11:19:14;98636.72;;;8.35;49.78
42887;BME280;29032;56.028;92.904;2022-09-27T11:24:34;98624.59;;;8.24;50.39
42887;BME280;29032;56.028;92.904;2022-09-27T11:29:48;98621.66;;;8.09;51.50
42887;BME280;29032;56.028;92.904;2022-09-27T11:35:12;98631.69;;;7.99;51.57
42887;BME280;29032;56.028;92.904;2022-09-27T11:40:26;98628.91;;;7.99;52.53
42887;BME280;29032;56.028;92.904;2022-09-27T11:45:53;98630.19;;;7.98;53.52
42887;BME280;29032;56.028;92.904;2022-09-27T11:51:07;98624.59;;;7.77;54.07
42887;BME280;29032;56.028;92.904;2022-09-27T11:56:26;98614.06;;;7.62;55.55
42887;BME280;29032;56.028;92.904;2022-09-27T12:01:36;98625.38;;;7.51;56.88
42887;BME280;29032;56.028;92.904;2022-09-27T12:06:48;98630.06;;;7.43;56.05
42887;BME280;29032;56.028;92.904;2022-09-27T12:11:58;98622.03;;;7.26;56.69
42887;BME280;29032;56.028;92.904;2022-09-27T12:17:03;98621.06;;;7.10;57.76
42887;BME280;29032;56.028;92.904;2022-09-27T12:22:11;98634.25;;;7.04;57.62
42887;BME280;29032;56.028;92.904;2022-09-27T12:27:31;98639.31;;;7.00;58.77
42887;BME280;29032;56.028;92.904;2022-09-27T12:32:39;98632.31;;;6.99;59.06
42887;BME280;29032;56.028;92.904;2022-09-27T12:37:47;98627.63;;;7.07;57.54
42887;BME280;29032;56.028;92.904;2022-09-27T12:42:56;98631.25;;;7.02;59.22
42887;BME280;29032;56.028;92.904;2022-09-27T12:48:23;98614.22;;;6.98;59.05
42887;BME280;29032;56.028;92.904;2022-09-27T12:53:32;98618.44;;;6.86;60.18
42887;BME280;29032;56.028;92.904;2022-09-27T12:59:04;98625.63;;;6.95;58.51
42887;BME280;29032;56.028;92.904;2022-09-27T13:04:23;98615.47;;;6.84;60.49
42887;BME280;29032;56.028;92.904;2022-09-27T13:10:05;98605.16;;;6.84;58.69
42887;BME280;29032;56.028;92.904;2022-09-27T13:15:18;98613.53;;;6.66;59.92
42887;BME280;29032;56.028;92.904;2022-09-27T13:20:43;98610.31;;;6.61;61.12
42887;BME280;29032;56.028;92.904;2022-09-27T13:26:01;98614.69;;;6.38;61.78
42887;BME280;29032;56.028;92.904;2022-09-27T13:42:41;98611.09;;;6.43;57.97
42887;BME280;29032;56.028;92.904;2022-09-27T13:47:51;98605.47;;;6.17;61.85
42887;BME280;29032;56.028;92.904;2022-09-27T13:53:07;98606.81;;;6.10;62.15
42887;BME280;29032;56.028;92.904;2022-09-27T13:58:29;98597.25;;;6.11;61.59
42887;BME280;29032;56.028;92.904;2022-09-27T14:03:36;98601.56;;;6.06;61.87
42887;BME280;29032;56.028;92.904;2022-09-27T14:08:56;98585.44;;;6.11;63.14
42887;BME280;29032;56.028;92.904;2022-09-27T14:14:00;98575.88;;;6.12;62.97
42887;BME280;29032;56.028;92.904;2022-09-27T14:19:13;98601.84;;;6.22;62.90
42887;BME280;29032;56.028;92.904;2022-09-27T14:24:25;98586.63;;;6.15;62.79
42887;BME280;29032;56.028;92.904;2022-09-27T14:29:31;98598.06;;;6.06;63.93
42887;BME280;29032;56.028;92.904;2022-09-27T14:34:35;98599.75;;;6.09;64.23
42887;BME280;29032;56.028;92.904;2022-09-27T14:39:38;98584.69;;;6.10;63.47
42887;BME280;29032;56.028;92.904;2022-09-27T14:45:13;98594.63;;;6.19;63.02
42887;BME280;29032;56.028;92.904;2022-09-27T14:50:23;98609.94;;;6.20;63.45
42887;BME280;29032;56.028;92.904;2022-09-27T14:55:26;98605.16;;;6.20;63.19
42887;BME280;29032;56.028;92.904;2022-09-27T15:00:30;98597.25;;;6.11;62.85
42887;BME280;29032;56.028;92.904;2022-09-27T15:05:34;98592.47;;;6.12;63.02
42887;BME280;29032;56.028;92.904;2022-09-27T15:10:43;98585.44;;;6.11;63.00
42887;BME280;29032;56.028;92.904;2022-09-27T15:15:46;98574.69;;;6.07;63.16
42887;BME280;29032;56.028;92.904;2022-09-27T15:20:53;98570.75;;;6.02;63.77
42887;BME280;29032;56.028;92.904;2022-09-27T15:25:59;98568.06;;;5.97;64.22
42887;BME280;29032;56.028;92.904;2022-09-27T15:31:04;98561.66;;;5.89;64.08
42887;BME280;29032;56.028;92.904;2022-09-27T15:36:09;98566.72;;;6.03;63.55
42887;BME280;29032;56.028;92.904;2022-09-27T15:41:15;98561.59;;;6.07;63.26
42887;BME280;29032;56.028;92.904;2022-09-27T15:46:34;98556.63;;;6.06;63.36
42887;BME280;29032;56.028;92.904;2022-09-27T15:51:39;98556.94;;;5.84;63.63
42887;BME280;29032;56.028;92.904;2022-09-27T15:56:42;98551.41;;;5.65;63.83
42887;BME280;29032;56.028;92.904;2022-09-27T16:01:44;98531.72;;;5.55;64.27
42887;BME280;29032;56.028;92.904;2022-09-27T16:06:47;98547.22;;;5.58;63.11
42887;BME280;29032;56.028;92.904;2022-09-27T16:11:49;98535.59;;;5.46;64.07
42887;BME280;29032;56.028;92.904;2022-09-27T16:16:54;98531.56;;;5.47;64.06
42887;BME280;29032;56.028;92.904;2022-09-27T16:21:58;98543.50;;;5.56;64.76
42887;BME280;29032;56.028;92.904;2022-09-27T16:27:00;98539.31;;;5.49;63.99
42887;BME280;29032;56.028;92.904;2022-09-27T16:32:02;98511.63;;;5.55;64.37
42887;BME280;29032;56.028;92.904;2022-09-27T16:37:05;98523.22;;;5.53;64.78
42887;BME280;29032;56.028;92.904;2022-09-27T16:42:07;98518.09;;;5.38;64.39
42887;BME280;29032;56.028;92.904;2022-09-27T16:47:10;98534.72;;;5.33;64.67
42887;BME280;29032;56.028;92.904;2022-09-27T16:52:13;98527.91;;;5.39;65.60
42887;BME280;29032;56.028;92.904;2022-09-27T16:57:15;98518.09;;;5.38;64.45
42887;BME280;29032;56.028;92.904;2022-09-27T17:02:17;98522.13;;;5.37;64.86
42887;BME280;29032;56.028;92.904;2022-09-27T17:07:21;98518.38;;;5.35;64.23
42887;BME280;29032;56.028;92.904;2022-09-27T17:12:23;98513.84;;;5.37;64.18
42887;BME280;29032;56.028;92.904;2022-09-27T17:17:25;98509.00;;;5.43;63.84
42887;BME280;29032;56.028;92.904;2022-09-27T17:22:29;98522.16;;;5.56;63.28
42887;BME280;29032;56.028;92.904;2022-09-27T17:27:31;98521.09;;;5.59;64.01
42887;BME280;29032;56.028;92.904;2022-09-27T17:32:33;98522.09;;;5.62;63.34
42887;BME280;29032;56.028;92.904;2022-09-27T17:37:37;98507.53;;;5.61;63.80
42887;BME280;29032;56.028;92.904;2022-09-27T17:42:39;98512.66;;;5.51;62.60
42887;BME280;29032;56.028;92.904;2022-09-27T17:47:41;98506.19;;;5.49;63.86
42887;BME280;29032;56.028;92.904;2022-09-27T17:52:45;98510.38;;;5.56;63.62
42887;BME280;29032;56.028;92.904;2022-09-27T17:57:47;98504.38;;;5.51;63.45
42887;BME280;29032;56.028;92.904;2022-09-27T18:02:49;98494.19;;;5.46;63.59
42887;BME280;29032;56.028;92.904;2022-09-27T18:07:53;98486.94;;;5.43;63.97
42887;BME280;29032;56.028;92.904;2022-09-27T18:12:55;98489.53;;;5.36;63.44
42887;BME280;29032;56.028;92.904;2022-09-27T18:17:57;98494.06;;;5.33;63.34
42887;BME280;29032;56.028;92.904;2022-09-27T18:23:01;98487.81;;;5.33;64.14
42887;BME280;29032;56.028;92.904;2022-09-27T18:28:03;98493.63;;;5.29;64.33
42887;BME280;29032;56.028;92.904;2022-09-27T18:33:05;98486.72;;;5.41;63.40
42887;BME280;29032;56.028;92.904;2022-09-27T18:38:08;98487.22;;;5.59;63.41
42887;BME280;29032;56.028;92.904;2022-09-27T18:43:11;98493.63;;;5.67;64.05
42887;BME280;29032;56.028;92.904;2022-09-27T18:48:13;98498.78;;;5.76;62.91
42887;BME280;29032;56.028;92.904;2022-09-27T18:53:16;98497.97;;;5.81;62.91
42887;BME280;29032;56.028;92.904;2022-09-27T18:58:18;98508.09;;;5.73;62.25
42887;BME280;29032;56.028;92.904;2022-09-27T19:03:20;98505.13;;;5.71;62.96
42887;BME280;29032;56.028;92.904;2022-09-27T19:08:24;98506.09;;;5.73;63.40
42887;BME280;29032;56.028;92.904;2022-09-27T19:13:26;98507.81;;;5.76;62.53
42887;BME280;29032;56.028;92.904;2022-09-27T19:18:29;98502.91;;;5.69;63.35
42887;BME280;29032;56.028;92.904;2022-09-27T19:23:32;98515.72;;;5.67;63.57
42887;BME280;29032;56.028;92.904;2022-09-27T19:28:41;98513.19;;;5.69;63.16
42887;BME280;29032;56.028;92.904;2022-09-27T19:33:43;98520.22;;;5.70;64.47
42887;BME280;29032;56.028;92.904;2022-09-27T19:38:47;98518.41;;;5.91;63.80
42887;BME280;29032;56.028;92.904;2022-09-27T19:43:50;98510.19;;;6.04;63.67
42887;BME280;29032;56.028;92.904;2022-09-27T19:48:53;98514.63;;;6.07;60.84
42887;BME280;29032;56.028;92.904;2022-09-27T19:53:56;98506.91;;;5.87;60.76
42887;BME280;29032;56.028;92.904;2022-09-27T19:58:59;98516.91;;;5.71;61.37
42887;BME280;29032;56.028;92.904;2022-09-27T20:04:01;98522.00;;;5.67;60.80
42887;BME280;29032;56.028;92.904;2022-09-27T20:09:05;98516.25;;;5.65;62.04
42887;BME280;29032;56.028;92.904;2022-09-27T20:14:07;98524.84;;;5.62;61.57
42887;BME280;29032;56.028;92.904;2022-09-27T20:19:09;98532.16;;;5.59;60.76
42887;BME280;29032;56.028;92.904;2022-09-27T20:24:13;98533.47;;;5.52;59.96
42887;BME280;29032;56.028;92.904;2022-09-27T20:29:15;98534.38;;;5.42;60.52
42887;BME280;29032;56.028;92.904;2022-09-27T20:34:17;98536.63;;;5.43;60.79
42887;BME280;29032;56.028;92.904;2022-09-27T20:39:20;98551.22;;;5.38;60.43
42887;BME280;29032;56.028;92.904;2022-09-27T20:44:23;98552.63;;;5.26;59.67
42887;BME280;29032;56.028;92.904;2022-09-27T20:49:25;98552.03;;;5.09;60.27
42887;BME280;29032;56.028;92.904;2022-09-27T20:54:28;98560.88;;;5.02;61.14
42887;BME280;29032;56.028;92.904;2022-09-27T20:59:30;98555.72;;;4.92;61.18
42887;BME280;29032;56.028;92.904;2022-09-27T21:04:32;98572.38;;;4.81;61.13
42887;BME280;29032;56.028;92.904;2022-09-27T21:09:36;98568.59;;;4.84;60.92
42887;BME280;29032;56.028;92.904;2022-09-27T21:14:38;98573.91;;;4.82;60.90
42887;BME280;29032;56.028;92.904;2022-09-27T21:19:40;98575.13;;;4.81;60.74
42887;BME280;29032;56.028;92.904;2022-09-27T21:24:43;98570.94;;;4.75;60.67
42887;BME280;29032;56.028;92.904;2022-09-27T21:29:45;98586.31;;;4.64;60.58
42887;BME280;29032;56.028;92.904;2022-09-27T21:34:47;98595.34;;;4.65;60.17
42887;BME280;29032;56.028;92.904;2022-09-27T21:39:51;98590.94;;;4.51;60.35
42887;BME280;29032;56.028;92.904;2022-09-27T21:44:53;98613.78;;;4.46;61.27
42887;BME280;29032;56.028;92.904;2022-09-27T21:49:55;98607.97;;;4.55;60.76
42887;BME280;29032;56.028;92.904;2022-09-27T21:54:59;98607.63;;;4.64;60.99
42887;BME280;29032;56.028;92.904;2022-09-27T22:00:01;98610.16;;;4.62;60.35
42887;BME280;29032;56.028;92.904;2022-09-27T22:05:06;98623.47;;;4.58;60.82
42887;BME280;29032;56.028;92.904;2022-09-27T22:10:10;98624.16;;;4.64;61.76
42887;BME280;29032;56.028;92.904;2022-09-27T22:15:12;98629.13;;;4.71;60.82
42887;BME280;29032;56.028;92.904;2022-09-27T22:20:14;98636.63;;;4.76;60.68
42887;BME280;29032;56.028;92.904;2022-09-27T22:25:18;98647.81;;;4.84;59.68
42887;BME280;29032;56.028;92.904;2022-09-27T22:30:20;98648.38;;;4.77;60.21
42887;BME280;29032;56.028;92.904;2022-09-27T22:35:22;98649.59;;;4.81;59.70
42887;BME280;29032;56.028;92.904;2022-09-27T22:40:26;98663.09;;;4.85;59.67
42887;BME280;29032;56.028;92.904;2022-09-27T22:45:28;98676.72;;;4.77;60.22
42887;BME280;29032;56.028;92.904;2022-09-27T22:50:30;98683.22;;;4.74;59.75
42887;BME280;29032;56.028;92.904;2022-09-27T22:55:33;98681.94;;;4.81;59.31
42887;BME280;29032;56.028;92.904;2022-09-27T23:00:36;98691.22;;;4.83;59.99
42887;BME280;29032;56.028;92.904;2022-09-27T23:05:39;98718.06;;;4.77;59.17
42887;BME280;29032;56.028;92.904;2022-09-27T23:10:42;98721.44;;;4.59;59.64
42887;BME280;29032;56.028;92.904;2022-09-27T23:15:44;98713.53;;;4.38;60.03
42887;BME280;29032;56.028;92.904;2022-09-27T23:20:46;98721.81;;;4.38;60.23
42887;BME280;29032;56.028;92.904;2022-09-27T23:25:56;98723.97;;;4.57;60.60
42887;BME280;29032;56.028;92.904;2022-09-27T23:31:03;98730.72;;;4.61;60.03
42887;BME280;29032;56.028;92.904;2022-09-27T23:36:07;98736.69;;;4.65;60.80
42887;BME280;29032;56.028;92.904;2022-09-27T23:41:12;98759.69;;;4.74;59.57
42887;BME280;29032;56.028;92.904;2022-09-27T23:46:15;98753.97;;;4.66;59.53
42887;BME280;29032;56.028;92.904;2022-09-27T23:51:18;98758.75;;;4.65;60.27
42887;BME280;29032;56.028;92.904;2022-09-27T23:56:21;98755.63;;;4.80;59.01
